Time;durP1;ratioP1;P1;durP2;ratioP2;P2;SDS_P1;SDS_P2;PMS_P1;PMS_P2;Temp;Humidity;BMP_temperature;BMP_pressure;BME280_temperature;BME280_humidity;BME280_pressure;Samples;Min_cycle;Max_cycle;Signal;HPM_P1;HPM_P2
2023/06/04 00:00:19;;;;;;;1.50;1.00;;;14.40;77.80;;;;;;5036486;28;20491;-80
2023/06/04 00:02:46;;;;;;;1.47;1.00;;;14.30;77.50;;;;;;5020680;28;20499;-76
2023/06/04 00:05:12;;;;;;;1.43;1.00;;;14.30;78.00;;;;;;5033703;28;20498;-81
2023/06/04 00:07:39;;;;;;;1.43;1.00;;;14.20;77.80;;;;;;5009025;28;20496;-80
2023/06/04 00:10:07;;;;;;;1.43;1.00;;;14.20;77.10;;;;;;5034599;28;20485;-81
2023/06/04 00:12:34;;;;;;;1.50;1.00;;;14.20;77.20;;;;;;5020010;28;20558;-81
2023/06/04 00:15:02;;;;;;;1.50;1.10;;;14.10;77.60;;;;;;5034364;28;20482;-79
2023/06/04 00:17:29;;;;;;;1.43;0.90;;;14.10;77.60;;;;;;5019336;28;20490;-78
2023/06/04 00:19:56;;;;;;;1.50;1.00;;;14.00;78.30;;;;;;5029672;28;20547;-80
2023/06/04 00:22:23;;;;;;;1.50;1.00;;;14.00;78.40;;;;;;5020185;28;20758;-78
2023/06/04 00:24:50;;;;;;;1.50;1.10;;;14.00;78.40;;;;;;5032112;28;20538;-80
2023/06/04 00:27:17;;;;;;;1.47;0.90;;;13.90;79.20;;;;;;5021551;28;20537;-80
2023/06/04 00:29:44;;;;;;;1.50;1.00;;;13.80;78.40;;;;;;5033448;28;20463;-80
2023/06/04 00:32:12;;;;;;;1.50;1.10;;;13.80;78.80;;;;;;5021004;28;20482;-82
2023/06/04 00:34:39;;;;;;;1.50;1.10;;;13.80;78.90;;;;;;5030841;28;20474;-78
2023/06/04 00:37:06;;;;;;;1.50;1.10;;;13.70;78.80;;;;;;5018795;28;20563;-79
2023/06/04 00:39:34;;;;;;;1.50;1.00;;;13.70;79.10;;;;;;5034460;28;20499;-79
2023/06/04 00:42:01;;;;;;;1.47;1.10;;;13.70;79.00;;;;;;5024610;28;20490;-83
2023/06/04 00:44:28;;;;;;;1.43;1.00;;;13.60;79.00;;;;;;5032869;28;20472;-80
2023/06/04 00:46:55;;;;;;;1.50;1.00;;;13.50;78.90;;;;;;5019582;28;21020;-82
2023/06/04 00:49:23;;;;;;;1.50;1.00;;;13.50;79.10;;;;;;5033719;28;20543;-81
2023/06/04 00:51:51;;;;;;;1.50;1.00;;;13.50;79.80;;;;;;5020093;28;20486;-82
2023/06/04 00:54:18;;;;;;;1.47;1.00;;;13.40;80.30;;;;;;5032024;28;20466;-82
2023/06/04 00:56:45;;;;;;;1.50;1.00;;;13.40;80.40;;;;;;5015918;28;20511;-78
2023/06/04 00:59:12;;;;;;;1.50;1.00;;;13.30;80.10;;;;;;5028215;28;20486;-81
2023/06/04 01:01:46;;;;;;;1.50;1.10;;;13.30;80.80;;;;;;5019299;28;20503;-79
2023/06/04 01:04:18;;;;;;;1.50;1.07;;;13.30;82.00;;;;;;5032301;28;20456;-81
2023/06/04 01:06:50;;;;;;;1.47;1.00;;;13.20;80.80;;;;;;5018727;28;20471;-80
2023/06/04 01:09:17;;;;;;;1.50;1.10;;;13.20;81.60;;;;;;5025784;28;20460;-80
2023/06/04 01:11:44;;;;;;;1.43;1.00;;;13.10;81.30;;;;;;5018275;28;20489;-80
2023/06/04 01:14:11;;;;;;;1.43;1.00;;;13.10;82.50;;;;;;5032753;28;20466;-81
2023/06/04 01:16:43;;;;;;;1.47;1.00;;;13.10;82.50;;;;;;5018832;28;20983;-80
2023/06/04 01:19:24;;;;;;;1.40;1.00;;;13.10;83.10;;;;;;5029201;28;20494;-81
2023/06/04 01:21:57;;;;;;;1.50;1.10;;;13.00;82.80;;;;;;5019387;28;20518;-81
2023/06/04 01:24:28;;;;;;;1.43;1.00;;;13.00;83.30;;;;;;5022713;28;20478;-80
2023/06/04 01:26:56;;;;;;;1.47;1.07;;;13.00;83.50;;;;;;5017225;28;20491;-80
2023/06/04 01:29:23;;;;;;;1.40;1.10;;;12.90;83.60;;;;;;5033794;28;20494;-79
2023/06/04 01:31:52;;;;;;;1.50;1.00;;;12.90;83.40;;;;;;5021724;28;20517;-80
2023/06/04 01:34:19;;;;;;;1.47;1.00;;;12.90;84.10;;;;;;5032005;28;20464;-79
2023/06/04 01:36:46;;;;;;;1.47;1.10;;;12.90;84.30;;;;;;5018412;28;20506;-76
2023/06/04 01:39:14;;;;;;;1.43;1.10;;;12.90;84.50;;;;;;5031192;28;20487;-76
2023/06/04 01:41:41;;;;;;;1.47;1.10;;;12.80;84.30;;;;;;5016520;28;20553;-78
2023/06/04 01:44:08;;;;;;;1.50;1.10;;;12.80;83.90;;;;;;5032369;28;20472;-80
2023/06/04 01:46:35;;;;;;;1.50;1.10;;;12.70;83.90;;;;;;5018153;28;20487;-81
2023/06/04 01:49:01;;;;;;;1.47;1.03;;;12.70;84.20;;;;;;5032471;28;20520;-84
2023/06/04 01:51:28;;;;;;;1.43;1.00;;;12.70;84.90;;;;;;5018682;28;20483;-83
2023/06/04 01:53:55;;;;;;;1.40;1.00;;;12.60;84.30;;;;;;5032262;28;21028;-80
2023/06/04 01:56:23;;;;;;;1.50;1.20;;;12.60;84.50;;;;;;5018998;28;20751;-83
2023/06/04 01:58:49;;;;;;;1.43;1.00;;;12.60;84.50;;;;;;5032659;28;20876;-82
2023/06/04 02:01:16;;;;;;;1.43;1.00;;;12.60;84.80;;;;;;5020969;28;20484;-79
2023/06/04 02:03:44;;;;;;;1.43;1.00;;;12.50;85.00;;;;;;5031671;28;20463;-81
2023/06/04 02:06:12;;;;;;;1.50;1.10;;;12.50;85.10;;;;;;5021667;28;20511;-79
2023/06/04 02:08:40;;;;;;;1.50;1.10;;;12.50;85.10;;;;;;5032086;28;20483;-76
2023/06/04 02:11:06;;;;;;;1.50;1.10;;;12.50;85.00;;;;;;5021259;28;22575;-81
2023/06/04 02:13:35;;;;;;;1.50;1.00;;;12.50;84.40;;;;;;5028986;28;20485;-79
2023/06/04 02:16:02;;;;;;;1.50;1.10;;;12.40;84.60;;;;;;5014630;28;20471;-75
2023/06/04 02:18:29;;;;;;;1.43;1.00;;;12.40;84.60;;;;;;5031186;28;21015;-80
2023/06/04 02:20:58;;;;;;;1.47;1.10;;;12.50;84.20;;;;;;5020255;28;20463;-81
2023/06/04 02:23:25;;;;;;;1.50;1.10;;;12.50;84.40;;;;;;5030896;28;20540;-80
2023/06/04 02:25:52;;;;;;;1.47;1.10;;;12.50;84.60;;;;;;5021903;28;20521;-82
2023/06/04 02:28:19;;;;;;;1.47;1.10;;;12.40;84.80;;;;;;5032418;28;20455;-78
2023/06/04 02:30:47;;;;;;;1.47;1.10;;;12.40;84.40;;;;;;5030567;28;20470;-82
2023/06/04 02:33:14;;;;;;;1.40;1.10;;;12.40;84.60;;;;;;5025629;28;20490;-81
2023/06/04 02:35:41;;;;;;;1.50;1.10;;;12.30;84.70;;;;;;5030530;28;20513;-78
2023/06/04 02:38:08;;;;;;;1.50;1.10;;;12.30;84.40;;;;;;5015726;28;20549;-79
2023/06/04 02:40:35;;;;;;;1.40;1.07;;;12.30;84.90;;;;;;5032856;28;20470;-81
2023/06/04 02:43:02;;;;;;;1.50;1.13;;;12.30;85.00;;;;;;5017325;28;20542;-80
2023/06/04 02:45:29;;;;;;;1.50;1.10;;;12.20;85.00;;;;;;5030634;28;20460;-78
2023/06/04 02:47:58;;;;;;;1.40;1.10;;;12.20;85.30;;;;;;5021126;28;20491;-80
2023/06/04 02:50:25;;;;;;;1.47;1.10;;;12.20;85.10;;;;;;5031929;28;20836;-79
2023/06/04 02:52:52;;;;;;;1.50;1.10;;;12.20;85.40;;;;;;5019150;28;20496;-81
2023/06/04 02:55:19;;;;;;;1.50;1.07;;;12.10;85.30;;;;;;5031521;28;20474;-82
2023/06/04 02:57:45;;;;;;;1.47;1.00;;;12.10;85.60;;;;;;5018240;28;20490;-80
2023/06/04 03:00:14;;;;;;;1.50;1.10;;;12.10;86.20;;;;;;5031335;28;20490;-79
2023/06/04 03:02:42;;;;;;;1.47;1.10;;;12.00;85.70;;;;;;5020631;28;20483;-83
2023/06/04 03:05:12;;;;;;;1.50;1.00;;;12.00;86.20;;;;;;5031930;28;20846;-82
2023/06/04 03:07:40;;;;;;;1.50;1.10;;;12.00;86.10;;;;;;5019394;28;20488;-81
2023/06/04 03:10:08;;;;;;;1.40;1.10;;;12.00;86.00;;;;;;5026709;28;20479;-80
2023/06/04 03:12:35;;;;;;;1.43;1.00;;;12.00;86.20;;;;;;5004582;28;20480;-80
2023/06/04 03:15:02;;;;;;;1.50;1.10;;;11.90;86.30;;;;;;5028474;28;20471;-80
2023/06/04 03:17:28;;;;;;;1.50;1.10;;;11.90;86.60;;;;;;5019709;28;20880;-80
2023/06/04 03:19:56;;;;;;;1.43;1.10;;;11.90;86.70;;;;;;5031373;28;20789;-82
2023/06/04 03:22:25;;;;;;;1.47;1.13;;;11.90;86.90;;;;;;5021747;28;20483;-81
2023/06/04 03:24:52;;;;;;;1.43;1.10;;;11.90;86.90;;;;;;5025515;28;20467;-80
2023/06/04 03:27:19;;;;;;;1.50;1.10;;;11.80;87.00;;;;;;5021261;28;20482;-78
2023/06/04 03:29:46;;;;;;;1.40;1.10;;;11.80;86.70;;;;;;5028130;28;20464;-84
2023/06/04 03:32:13;;;;;;;1.50;1.10;;;11.80;86.80;;;;;;5015905;28;21048;-80
2023/06/04 03:34:40;;;;;;;1.50;1.10;;;11.80;86.80;;;;;;5031649;28;20471;-81
2023/06/04 03:37:07;;;;;;;1.50;1.10;;;11.80;87.30;;;;;;5022039;28;20538;-84
2023/06/04 03:39:35;;;;;;;1.47;1.07;;;11.80;87.40;;;;;;5030456;28;20510;-76
2023/06/04 03:42:02;;;;;;;1.47;1.00;;;11.70;87.70;;;;;;5018598;28;21039;-76
2023/06/04 03:44:29;;;;;;;1.43;1.10;;;11.70;87.50;;;;;;5028138;28;20459;-77
2023/06/04 03:46:56;;;;;;;1.47;1.10;;;11.70;87.90;;;;;;5017215;28;20483;-74
2023/06/04 03:49:22;;;;;;;1.47;1.10;;;11.70;87.70;;;;;;5028571;28;20463;-77
2023/06/04 03:51:49;;;;;;;1.47;1.10;;;11.70;87.70;;;;;;5017644;28;20566;-76
2023/06/04 03:54:17;;;;;;;1.47;1.10;;;11.70;88.10;;;;;;5026664;28;20978;-76
2023/06/04 03:56:46;;;;;;;1.43;1.10;;;11.70;87.70;;;;;;5014223;28;20483;-75
2023/06/04 03:59:13;;;;;;;1.47;1.03;;;11.70;88.40;;;;;;5028149;28;20490;-75
2023/06/04 04:01:40;;;;;;;1.43;1.03;;;11.70;88.00;;;;;;5013918;28;20894;-77
2023/06/04 04:04:06;;;;;;;1.50;1.10;;;11.70;88.10;;;;;;5027668;28;20478;-76
2023/06/04 04:06:33;;;;;;;1.47;1.10;;;11.70;88.40;;;;;;5015146;28;20480;-78
2023/06/04 04:09:00;;;;;;;1.47;1.10;;;11.70;88.70;;;;;;5026674;28;20470;-77
2023/06/04 04:11:27;;;;;;;1.47;1.10;;;11.70;88.60;;;;;;5013339;28;20476;-76
2023/06/04 04:13:55;;;;;;;1.47;1.10;;;11.70;88.60;;;;;;5026158;28;20464;-76
2023/06/04 04:16:21;;;;;;;1.47;1.10;;;11.70;88.80;;;;;;5014632;28;20480;-76
2023/06/04 04:18:48;;;;;;;1.47;1.10;;;11.70;89.50;;;;;;5028282;28;20490;-77
2023/06/04 04:21:15;;;;;;;1.50;1.10;;;11.70;89.40;;;;;;5011550;28;20852;-76
2023/06/04 04:23:42;;;;;;;1.50;1.10;;;11.80;89.30;;;;;;5022733;28;20850;-76
2023/06/04 04:26:09;;;;;;;1.50;1.20;;;11.80;89.80;;;;;;5015688;28;20475;-76
2023/06/04 04:28:36;;;;;;;1.40;1.10;;;11.80;90.20;;;;;;5024295;28;20563;-76
2023/06/04 04:31:06;;;;;;;1.50;1.07;;;11.90;89.50;;;;;;5016596;28;20463;-76
2023/06/04 04:33:36;;;;;;;1.47;1.10;;;11.90;90.40;;;;;;5019106;28;20483;-75
2023/06/04 04:36:03;;;;;;;1.50;1.10;;;12.00;89.90;;;;;;5018578;28;20834;-77
2023/06/04 04:38:33;;;;;;;1.50;1.07;;;12.10;90.30;;;;;;5028104;28;20467;-77
2023/06/04 04:41:00;;;;;;;1.50;1.10;;;12.20;90.00;;;;;;5017779;28;20459;-77
2023/06/04 04:43:31;;;;;;;1.50;1.10;;;12.20;90.50;;;;;;5025414;28;20858;-77
2023/06/04 04:45:58;;;;;;;1.47;1.10;;;12.40;90.70;;;;;;5018867;28;20615;-78
2023/06/04 04:48:26;;;;;;;1.43;1.10;;;12.50;90.40;;;;;;5031088;28;20474;-76
2023/06/04 04:50:53;;;;;;;1.50;1.10;;;12.70;91.20;;;;;;5014533;28;20456;-76
2023/06/04 04:53:20;;;;;;;1.50;1.00;;;12.90;90.80;;;;;;5016114;28;20495;-76
2023/06/04 04:55:47;;;;;;;1.50;1.10;;;13.10;89.90;;;;;;5029492;28;20473;-78
2023/06/04 04:58:14;;;;;;;1.50;1.10;;;13.30;89.70;;;;;;5028830;28;20474;-76
2023/06/04 05:00:41;;;;;;;1.43;1.00;;;13.60;89.10;;;;;;5031517;28;20487;-77
2023/06/04 05:03:07;;;;;;;1.43;1.03;;;13.80;88.40;;;;;;5017635;28;20490;-76
2023/06/04 05:05:35;;;;;;;1.50;1.00;;;14.00;88.10;;;;;;5028890;28;20455;-76
2023/06/04 05:08:02;;;;;;;1.47;1.00;;;14.30;87.90;;;;;;5018880;28;20484;-77
2023/06/04 05:10:29;;;;;;;1.50;1.00;;;14.60;86.40;;;;;;5030492;28;20808;-77
2023/06/04 05:12:57;;;;;;;1.47;1.00;;;14.80;85.50;;;;;;5018413;28;20493;-77
2023/06/04 05:15:26;;;;;;;1.47;1.00;;;14.90;84.50;;;;;;5029583;28;20472;-79
2023/06/04 05:17:53;;;;;;;1.50;1.10;;;15.10;84.40;;;;;;5023046;28;20507;-83
2023/06/04 05:20:20;;;;;;;1.47;0.90;;;15.40;83.90;;;;;;5030951;28;20483;-81
2023/06/04 05:22:49;;;;;;;1.50;1.00;;;15.60;83.50;;;;;;5018457;28;21048;-82
2023/06/04 05:25:17;;;;;;;1.50;1.00;;;15.80;82.50;;;;;;5035572;28;20471;-81
2023/06/04 05:27:44;;;;;;;1.40;1.00;;;16.10;81.60;;;;;;5024844;28;20533;-81
2023/06/04 05:30:12;;;;;;;1.50;1.00;;;16.20;81.10;;;;;;5036299;28;20456;-80
2023/06/04 05:32:40;;;;;;;1.47;1.00;;;16.40;80.20;;;;;;5020657;28;20990;-81
2023/06/04 05:35:08;;;;;;;1.47;0.90;;;16.50;79.10;;;;;;5028574;28;20474;-78
2023/06/04 05:37:37;;;;;;;1.47;0.90;;;16.60;78.80;;;;;;5012909;28;20511;-78
2023/06/04 05:40:07;;;;;;;1.50;1.00;;;16.80;78.60;;;;;;5022108;28;20494;-78
2023/06/04 05:42:34;;;;;;;1.50;0.90;;;16.90;79.20;;;;;;5020821;28;20980;-78
2023/06/04 05:45:01;;;;;;;1.50;1.00;;;17.10;78.10;;;;;;5029451;28;20485;-82
2023/06/04 05:47:29;;;;;;;1.50;0.90;;;17.20;77.70;;;;;;5020654;28;20503;-78
2023/06/04 05:49:56;;;;;;;1.50;1.00;;;17.30;77.20;;;;;;5028011;28;20538;-82
2023/06/04 05:52:23;;;;;;;1.47;0.90;;;17.50;76.70;;;;;;5028367;28;20482;-82
2023/06/04 05:54:50;;;;;;;1.40;0.90;;;17.60;75.70;;;;;;5032283;28;20471;-79
2023/06/04 05:57:18;;;;;;;1.47;0.90;;;17.70;76.60;;;;;;5023717;28;21087;-80
2023/06/04 05:59:45;;;;;;;1.43;0.90;;;17.80;76.20;;;;;;5036855;28;20551;-76
2023/06/04 06:02:12;;;;;;;1.50;0.90;;;17.70;75.90;;;;;;5023022;28;20478;-77
2023/06/04 06:04:39;;;;;;;1.50;0.90;;;17.80;76.20;;;;;;5029487;28;20464;-77
2023/06/04 06:07:06;;;;;;;1.43;0.90;;;17.90;75.30;;;;;;5020417;28;20483;-84
2023/06/04 06:09:33;;;;;;;1.47;0.90;;;18.00;74.60;;;;;;5029861;28;20464;-83
2023/06/04 06:11:59;;;;;;;1.43;0.90;;;18.10;74.60;;;;;;5020374;28;20500;-79
2023/06/04 06:14:28;;;;;;;1.40;0.90;;;18.20;74.30;;;;;;5029827;28;20455;-81
2023/06/04 06:16:55;;;;;;;1.47;0.90;;;18.50;73.20;;;;;;5019364;28;20498;-79
2023/06/04 06:19:22;;;;;;;1.47;0.90;;;18.60;73.50;;;;;;5030698;28;20578;-82
2023/06/04 06:21:49;;;;;;;1.47;0.90;;;18.80;73.40;;;;;;5011148;28;20497;-76
2023/06/04 06:24:16;;;;;;;1.47;0.90;;;19.00;72.50;;;;;;5024463;28;20959;-82
2023/06/04 06:26:43;;;;;;;1.43;0.90;;;19.20;71.90;;;;;;5017440;28;20827;-78
2023/06/04 06:29:10;;;;;;;1.50;0.90;;;19.30;72.60;;;;;;5028118;28;20546;-78
2023/06/04 06:31:39;;;;;;;1.50;0.90;;;19.60;72.70;;;;;;5018191;28;20495;-80
2023/06/04 06:34:06;;;;;;;1.47;0.90;;;19.90;72.20;;;;;;5025825;28;20467;-78
2023/06/04 06:36:33;;;;;;;1.50;0.90;;;20.00;70.70;;;;;;5014335;28;20565;-77
2023/06/04 06:39:01;;;;;;;1.43;0.90;;;20.20;70.60;;;;;;5027060;28;20510;-76
2023/06/04 06:41:29;;;;;;;1.50;0.90;;;20.40;70.50;;;;;;5011451;28;20557;-76
2023/06/04 06:43:56;;;;;;;1.43;0.83;;;20.50;70.30;;;;;;5024587;28;20463;-78
2023/06/04 06:46:23;;;;;;;1.40;0.90;;;20.70;70.20;;;;;;5005599;28;20560;-76
2023/06/04 06:48:52;;;;;;;1.43;0.90;;;20.90;69.70;;;;;;5008982;28;20456;-79
2023/06/04 06:51:19;;;;;;;1.40;0.90;;;21.00;70.20;;;;;;5017046;28;20475;-78
2023/06/04 06:53:46;;;;;;;1.47;0.90;;;21.20;69.30;;;;;;5023108;28;20827;-80
2023/06/04 06:56:16;;;;;;;1.40;0.90;;;21.30;70.30;;;;;;5014830;28;20574;-80
2023/06/04 06:58:42;;;;;;;1.47;0.90;;;21.60;69.20;;;;;;5024310;28;20468;-81
2023/06/04 07:01:09;;;;;;;1.43;0.90;;;21.70;68.40;;;;;;5014353;28;20510;-78
2023/06/04 07:03:38;;;;;;;1.50;0.90;;;21.90;67.00;;;;;;5032340;28;20884;-79
2023/06/04 07:06:06;;;;;;;1.47;0.90;;;22.00;66.60;;;;;;5013058;28;20459;-79
2023/06/04 07:08:33;;;;;;;1.50;1.00;;;22.10;66.20;;;;;;5028069;28;20455;-87
2023/06/04 07:10:59;;;;;;;1.50;0.90;;;22.40;66.50;;;;;;5022918;28;20747;-83
2023/06/04 07:13:26;;;;;;;1.47;0.90;;;22.60;66.30;;;;;;5031685;28;20475;-82
2023/06/04 07:15:53;;;;;;;1.43;0.90;;;22.80;65.50;;;;;;5016514;28;20463;-81
2023/06/04 07:18:20;;;;;;;1.43;0.90;;;22.90;66.90;;;;;;5025632;28;20452;-85
2023/06/04 07:20:47;;;;;;;1.43;0.90;;;23.00;67.50;;;;;;5029369;28;20517;-85
2023/06/04 07:23:15;;;;;;;1.47;0.90;;;23.10;64.40;;;;;;5029935;28;20491;-80
2023/06/04 07:25:42;;;;;;;1.47;0.90;;;23.20;64.20;;;;;;5032024;28;20997;-83
2023/06/04 07:28:08;;;;;;;1.47;0.90;;;23.30;64.60;;;;;;5019236;28;21175;-85
2023/06/04 07:30:36;;;;;;;1.47;0.80;;;23.40;64.30;;;;;;5034426;28;20459;-84
2023/06/04 07:33:03;;;;;;;1.50;1.00;;;23.60;64.20;;;;;;5020313;28;20483;-81
2023/06/04 07:35:30;;;;;;;2.13;1.93;;;23.70;63.40;;;;;;5030473;28;20524;-84
2023/06/04 07:37:57;;;;;;;1.60;1.10;;;23.80;65.30;;;;;;5017954;28;20499;-80
2023/06/04 07:40:25;;;;;;;1.43;0.80;;;23.90;64.00;;;;;;5033579;28;20490;-85
2023/06/04 07:42:51;;;;;;;1.50;0.90;;;24.00;64.10;;;;;;5021334;28;20485;-83
2023/06/04 07:45:18;;;;;;;1.50;0.90;;;24.20;63.80;;;;;;5031053;28;20471;-80
2023/06/04 07:47:45;;;;;;;1.47;0.90;;;24.50;64.40;;;;;;5011986;28;20483;-80
2023/06/04 07:50:12;;;;;;;1.40;0.80;;;24.70;63.40;;;;;;5034372;28;20515;-84
2023/06/04 07:52:39;;;;;;;1.43;0.80;;;24.90;62.90;;;;;;5021137;28;20489;-81
2023/06/04 07:55:08;;;;;;;1.47;0.90;;;25.00;62.20;;;;;;5031051;28;20473;-83
2023/06/04 07:57:36;;;;;;;1.43;0.80;;;25.20;62.00;;;;;;5019447;28;20537;-85
2023/06/04 08:00:05;;;;;;;1.40;0.90;;;25.30;61.40;;;;;;5032224;28;20843;-82
2023/06/04 08:02:32;;;;;;;1.40;0.80;;;25.50;60.60;;;;;;5019003;28;20486;-78
2023/06/04 08:04:58;;;;;;;1.40;0.80;;;25.60;60.10;;;;;;5032925;28;20479;-83
2023/06/04 08:07:25;;;;;;;1.40;0.80;;;25.50;59.00;;;;;;5020127;28;20474;-82
2023/06/04 08:09:52;;;;;;;1.47;0.80;;;25.40;60.10;;;;;;5032681;28;20463;-80
2023/06/04 08:12:19;;;;;;;1.40;0.80;;;25.30;59.00;;;;;;5020438;28;20486;-81
2023/06/04 08:14:47;;;;;;;1.50;1.00;;;25.30;60.30;;;;;;5033679;28;20544;-81
2023/06/04 08:17:14;;;;;;;1.43;0.90;;;25.50;60.50;;;;;;5018435;28;20479;-80
2023/06/04 08:19:41;;;;;;;1.40;0.80;;;25.70;59.60;;;;;;5025593;28;20558;-79
2023/06/04 08:22:11;;;;;;;1.43;0.80;;;25.90;61.00;;;;;;5024913;28;20482;-82
2023/06/04 08:24:37;;;;;;;1.40;0.80;;;26.10;60.60;;;;;;5029112;28;20451;-78
2023/06/04 08:27:05;;;;;;;1.40;0.90;;;26.10;57.30;;;;;;5017443;28;20506;-82
2023/06/04 08:29:32;;;;;;;1.43;0.80;;;26.00;57.30;;;;;;5036493;28;20497;-81
2023/06/04 08:32:00;;;;;;;1.47;0.80;;;26.00;56.90;;;;;;5019628;28;20494;-80
2023/06/04 08:34:45;;;;;;;1.40;0.90;;;26.20;57.10;;;;;;5031639;28;20465;-79
2023/06/04 08:37:12;;;;;;;1.50;0.80;;;26.10;55.20;;;;;;5016205;28;20480;-80
2023/06/04 08:39:38;;;;;;;1.43;0.80;;;25.60;56.10;;;;;;5025755;28;20462;-80
2023/06/04 08:42:08;;;;;;;1.43;0.90;;;25.70;57.30;;;;;;5016594;28;20757;-80
2023/06/04 08:44:35;;;;;;;1.40;0.80;;;25.60;55.90;;;;;;5032871;28;20837;-79
2023/06/04 08:47:06;;;;;;;1.40;0.80;;;25.80;56.10;;;;;;5020205;28;20487;-81
2023/06/04 08:49:36;;;;;;;1.47;0.80;;;25.90;56.90;;;;;;5036402;28;20454;-83
2023/06/04 08:52:03;;;;;;;1.43;0.90;;;26.10;57.00;;;;;;5024056;28;20537;-84
2023/06/04 08:54:30;;;;;;;1.40;0.80;;;26.20;57.40;;;;;;5033494;28;20474;-80
2023/06/04 08:56:58;;;;;;;1.40;0.80;;;26.40;56.70;;;;;;5019762;28;20498;-80
2023/06/04 08:59:25;;;;;;;1.40;0.80;;;26.50;54.90;;;;;;5031467;28;20497;-81
2023/06/04 09:01:54;;;;;;;1.40;0.80;;;26.60;55.70;;;;;;5017177;28;21440;-79
2023/06/04 09:04:22;;;;;;;1.43;0.80;;;26.50;54.70;;;;;;5032058;28;20461;-81
2023/06/04 09:06:50;;;;;;;1.47;0.80;;;26.50;56.10;;;;;;5013747;28;20486;-79
2023/06/04 09:09:18;;;;;;;1.50;0.80;;;26.40;54.90;;;;;;5036149;28;20977;-83
2023/06/04 09:11:50;;;;;;;1.43;0.80;;;26.40;55.30;;;;;;5022775;28;20487;-82
2023/06/04 09:14:18;;;;;;;1.40;0.80;;;26.50;57.50;;;;;;5035260;28;20517;-82
2023/06/04 09:16:46;;;;;;;1.40;0.80;;;26.60;54.80;;;;;;5015884;28;21060;-81
2023/06/04 09:19:13;;;;;;;1.50;0.80;;;26.70;55.20;;;;;;5034079;28;20454;-77
2023/06/04 09:21:55;;;;;;;1.40;0.80;;;27.00;54.70;;;;;;5017714;28;20487;-77
2023/06/04 09:24:23;;;;;;;1.47;0.80;;;26.90;53.90;;;;;;5031776;28;20545;-78
2023/06/04 09:26:51;;;;;;;1.43;0.80;;;27.00;56.10;;;;;;5018961;28;20861;-81
2023/06/04 09:29:18;;;;;;;1.43;0.80;;;27.10;55.20;;;;;;5029625;28;20463;-78
2023/06/04 09:31:47;;;;;;;1.47;0.80;;;27.10;53.80;;;;;;5018006;28;20475;-83
2023/06/04 09:34:14;;;;;;;1.50;0.90;;;27.20;54.70;;;;;;5033319;28;20471;-82
2023/06/04 09:36:42;;;;;;;1.43;0.80;;;27.30;53.40;;;;;;5022096;28;20912;-78
2023/06/04 09:39:18;;;;;;;1.40;0.80;;;27.40;54.00;;;;;;5032222;28;20458;-78
2023/06/04 09:41:45;;;;;;;1.47;0.80;;;27.50;53.20;;;;;;5018870;28;20509;-81
2023/06/04 09:44:12;;;;;;;1.43;0.80;;;27.40;53.70;;;;;;5036648;28;20454;-81
2023/06/04 09:46:39;;;;;;;1.43;0.80;;;27.40;54.30;;;;;;5015937;28;20483;-81
2023/06/04 09:49:06;;;;;;;1.47;0.80;;;27.70;54.80;;;;;;5016710;28;20459;-78
2023/06/04 09:51:33;;;;;;;1.50;0.90;;;27.80;54.30;;;;;;5011257;28;20565;-80
2023/06/04 09:54:03;;;;;;;1.47;0.90;;;27.70;52.40;;;;;;5029305;28;20467;-80
2023/06/04 09:56:40;;;;;;;1.50;0.80;;;27.80;53.60;;;;;;5012689;28;20884;-80
2023/06/04 09:59:08;;;;;;;1.40;0.80;;;27.80;52.80;;;;;;5024238;28;20459;-79
2023/06/04 10:01:41;;;;;;;2.90;1.20;;;27.90;54.30;;;;;;5009670;28;20481;-80
2023/06/04 10:04:11;;;;;;;1.40;0.80;;;28.20;52.70;;;;;;5021798;28;20547;-82
2023/06/04 10:06:40;;;;;;;1.40;0.80;;;28.30;53.70;;;;;;5017712;28;20477;-80
2023/06/04 10:09:09;;;;;;;1.47;0.90;;;28.40;53.60;;;;;;5023592;28;20554;-83
2023/06/04 10:11:41;;;;;;;1.47;0.80;;;28.60;52.90;;;;;;5011508;28;20486;-84
2023/06/04 10:14:13;;;;;;;1.43;0.80;;;28.70;53.80;;;;;;5023489;28;20510;-82
2023/06/04 10:16:42;;;;;;;1.43;0.80;;;28.90;53.20;;;;;;5006243;28;20490;-81
2023/06/04 10:19:10;;;;;;;1.40;0.80;;;29.00;53.00;;;;;;5019531;28;20535;-84
2023/06/04 10:21:37;;;;;;;1.43;0.80;;;29.10;52.20;;;;;;5002403;28;20487;-83
2023/06/04 10:24:05;;;;;;;1.70;1.50;;;29.10;52.20;;;;;;5014530;28;20468;-81
2023/06/04 10:26:35;;;;;;;1.43;0.80;;;29.00;53.10;;;;;;5012147;28;20485;-79
2023/06/04 10:29:03;;;;;;;1.47;0.80;;;29.10;51.90;;;;;;5020827;28;20487;-80
2023/06/04 10:31:30;;;;;;;1.40;0.80;;;29.20;52.80;;;;;;5005915;28;20526;-82
2023/06/04 10:33:58;;;;;;;1.47;0.80;;;29.40;52.40;;;;;;5028036;28;20867;-82
2023/06/04 10:36:25;;;;;;;1.43;0.80;;;29.30;52.10;;;;;;5009869;28;20902;-80
2023/06/04 10:38:53;;;;;;;1.47;0.80;;;29.10;51.40;;;;;;5014952;28;20494;-81
2023/06/04 10:41:22;;;;;;;1.50;0.90;;;29.10;52.90;;;;;;5011212;28;21043;-79
2023/06/04 10:43:51;;;;;;;1.40;0.80;;;29.10;53.00;;;;;;5019135;28;20472;-79
2023/06/04 10:46:20;;;;;;;1.40;0.80;;;29.10;52.40;;;;;;5007262;28;20533;-78
2023/06/04 10:48:49;;;;;;;1.47;0.80;;;29.10;52.20;;;;;;5023965;28;20472;-79
2023/06/04 10:51:17;;;;;;;1.50;0.80;;;29.20;53.00;;;;;;5012577;28;20471;-82
2023/06/04 10:53:44;;;;;;;1.43;0.80;;;29.30;52.50;;;;;;5028272;28;20717;-82
2023/06/04 10:56:11;;;;;;;1.43;0.90;;;29.40;52.00;;;;;;5010116;28;20486;-82
2023/06/04 10:58:38;;;;;;;1.93;1.53;;;29.40;52.40;;;;;;5028769;28;20455;-84
2023/06/04 11:01:05;;;;;;;1.43;0.90;;;29.40;53.90;;;;;;5011373;28;20490;-78
2023/06/04 11:03:39;;;;;;;1.43;0.80;;;29.50;52.30;;;;;;5026769;28;20487;-76
2023/06/04 11:06:17;;;;;;;1.43;0.80;;;29.50;51.60;;;;;;5004360;28;20965;-78
2023/06/04 11:08:45;;;;;;;1.40;0.90;;;29.40;50.30;;;;;;5009257;28;20455;-79
2023/06/04 11:11:13;;;;;;;1.47;0.80;;;29.40;51.60;;;;;;5004569;28;20982;-80
2023/06/04 11:13:40;;;;;;;1.40;0.80;;;29.50;51.50;;;;;;5015357;28;20525;-80
2023/06/04 11:16:16;;;;;;;1.43;0.87;;;29.60;53.00;;;;;;5005502;28;20488;-79
2023/06/04 11:18:44;;;;;;;1.40;0.90;;;29.60;50.50;;;;;;5019331;28;20467;-79
2023/06/04 11:21:14;;;;;;;1.43;0.80;;;29.60;52.00;;;;;;5002363;28;20482;-79
2023/06/04 11:23:42;;;;;;;1.43;0.80;;;29.80;53.70;;;;;;5025828;28;21086;-79
2023/06/04 11:26:09;;;;;;;1.43;0.80;;;30.10;52.40;;;;;;5001454;28;20961;-79
2023/06/04 11:28:36;;;;;;;1.40;0.80;;;30.10;52.30;;;;;;5027938;28;20462;-78
2023/06/04 11:31:05;;;;;;;1.40;0.80;;;30.10;51.10;;;;;;5002049;28;20801;-78
2023/06/04 11:33:44;;;;;;;1.43;0.80;;;29.90;50.80;;;;;;5024214;28;20988;-81
2023/06/04 11:36:11;;;;;;;1.40;0.80;;;30.00;52.00;;;;;;5012644;28;20498;-78
2023/06/04 11:38:38;;;;;;;1.50;0.83;;;30.10;51.50;;;;;;5010627;28;21032;-85
2023/06/04 11:41:05;;;;;;;1.47;0.80;;;30.10;51.20;;;;;;5004936;28;20578;-79
2023/06/04 11:43:34;;;;;;;1.40;0.80;;;30.20;51.20;;;;;;5031010;28;20482;-80
2023/06/04 11:46:06;;;;;;;1.43;0.80;;;30.50;52.60;;;;;;5012459;28;20510;-81
2023/06/04 11:48:34;;;;;;;1.43;0.80;;;30.70;51.50;;;;;;5022953;28;20459;-83
2023/06/04 11:51:09;;;;;;;1.47;0.80;;;30.60;49.60;;;;;;5003994;28;20506;-82
2023/06/04 11:53:38;;;;;;;1.40;0.80;;;30.60;50.90;;;;;;5023888;28;20604;-79
2023/06/04 11:56:05;;;;;;;1.43;0.80;;;30.80;49.90;;;;;;5008107;28;20482;-83
2023/06/04 11:58:33;;;;;;;1.43;0.80;;;31.00;50.20;;;;;;5018358;28;20274;-80
2023/06/04 12:01:00;;;;;;;1.40;0.80;;;30.90;50.60;;;;;;5018960;28;20201;-85
2023/06/04 12:03:38;;;;;;;1.40;0.80;;;30.80;50.20;;;;;;5033701;28;20220;-80
2023/06/04 12:06:17;;;;;;;1.40;0.80;;;30.80;50.40;;;;;;5010564;28;20223;-85
2023/06/04 12:08:52;;;;;;;1.40;0.80;;;30.90;51.40;;;;;;5028283;28;20208;-82
2023/06/04 12:11:27;;;;;;;1.40;0.80;;;31.00;50.80;;;;;;5012466;28;20404;-79
2023/06/04 12:13:54;;;;;;;1.40;0.80;;;31.10;49.70;;;;;;5020940;28;20212;-82
2023/06/04 12:16:21;;;;;;;1.40;0.80;;;31.20;52.10;;;;;;5011803;28;20768;-79
2023/06/04 12:18:49;;;;;;;1.40;0.80;;;31.20;49.80;;;;;;5026449;28;20690;-79
2023/06/04 12:21:26;;;;;;;1.40;0.80;;;31.00;49.20;;;;;;5009310;28;20220;-84
2023/06/04 12:23:54;;;;;;;1.40;0.80;;;31.00;50.90;;;;;;5031290;28;20278;-79
2023/06/04 12:26:28;;;;;;;1.40;0.80;;;31.10;50.20;;;;;;5016342;28;20228;-83
2023/06/04 12:29:10;;;;;;;1.40;0.80;;;31.10;48.30;;;;;;5031769;28;20208;-79
2023/06/04 12:31:37;;;;;;;1.40;0.80;;;31.00;50.30;;;;;;5016141;28;20232;-79
2023/06/04 12:34:04;;;;;;;1.40;0.80;;;30.90;50.20;;;;;;5023989;28;20201;-81
2023/06/04 12:36:33;;;;;;;1.40;0.80;;;31.00;50.10;;;;;;5011086;28;20223;-80
2023/06/04 12:39:01;;;;;;;1.40;0.80;;;30.80;49.50;;;;;;5023181;28;20219;-81
2023/06/04 12:41:28;;;;;;;1.40;0.80;;;30.80;50.30;;;;;;5013374;28;20238;-80
2023/06/04 12:43:56;;;;;;;1.40;0.80;;;30.90;50.70;;;;;;5027719;28;20219;-83
2023/06/04 12:46:23;;;;;;;1.40;0.80;;;30.90;50.30;;;;;;5011684;28;20315;-80
2023/06/04 12:48:51;;;;;;;1.40;0.80;;;30.90;50.20;;;;;;5031791;28;20330;-81
2023/06/04 12:51:18;;;;;;;1.40;0.80;;;30.80;49.20;;;;;;5011838;28;20224;-80